createdAt,value
2018-11-10T00:00:26.623Z,7.13
2018-11-10T00:02:55.164Z,8.90
2018-11-10T00:05:24.333Z,7.13
2018-11-10T00:07:53.481Z,8.23
2018-11-10T00:10:22.550Z,8.43
2018-11-10T00:12:50.595Z,9.90
2018-11-10T00:15:18.321Z,7.80
2018-11-10T00:17:46.044Z,10.07
2018-11-10T00:20:13.838Z,13.10
2018-11-10T00:22:42.507Z,8.53
2018-11-10T00:25:12.014Z,8.40
2018-11-10T00:27:41.130Z,9.40
2018-11-10T00:30:10.861Z,7.63
2018-11-10T00:32:38.720Z,6.73
2018-11-10T00:35:06.791Z,11.23
2018-11-10T00:37:40.896Z,9.53
2018-11-10T00:40:15.686Z,8.40
2018-11-10T00:42:44.113Z,10.80
2018-11-10T00:45:11.817Z,11.60
2018-11-10T00:47:39.585Z,10.00
2018-11-10T00:50:07.963Z,8.10
2018-11-10T00:52:35.917Z,11.00
2018-11-10T00:55:03.832Z,8.63
2018-11-10T00:57:31.482Z,9.00
2018-11-10T00:59:59.223Z,10.10
2018-11-10T01:02:27.136Z,14.40
2018-11-10T01:04:54.995Z,10.13
2018-11-10T01:07:22.637Z,8.97
2018-11-10T01:09:50.376Z,7.90
2018-11-10T01:12:18.060Z,11.20
2018-11-10T01:14:45.884Z,7.27
2018-11-10T01:17:13.567Z,12.53
2018-11-10T01:19:41.304Z,7.40
2018-11-10T01:22:09.065Z,8.30
2018-11-10T01:24:36.871Z,9.43
2018-11-10T01:27:04.721Z,9.47
2018-11-10T01:29:32.489Z,8.33
2018-11-10T01:32:00.299Z,10.23
2018-11-10T01:34:28.910Z,7.90
2018-11-10T01:36:56.603Z,8.67
2018-11-10T01:39:24.330Z,7.53
2018-11-10T01:41:52.914Z,9.23
2018-11-10T01:44:20.706Z,8.23
2018-11-10T01:46:48.522Z,9.07
2018-11-10T01:49:16.240Z,8.27
2018-11-10T01:51:44.148Z,7.00
2018-11-10T01:54:11.767Z,7.00
2018-11-10T01:56:39.458Z,7.20
2018-11-10T01:59:07.237Z,6.97
2018-11-10T02:01:34.891Z,8.60
2018-11-10T02:04:02.772Z,7.93
2018-11-10T02:06:30.524Z,7.63
2018-11-10T02:08:58.320Z,9.00
2018-11-10T02:11:26.204Z,10.30
2018-11-10T02:13:54.223Z,7.37
2018-11-10T02:16:22.018Z,9.30
2018-11-10T02:18:49.678Z,11.20
2018-11-10T02:21:17.413Z,6.93
2018-11-10T02:23:45.311Z,16.00
2018-11-10T02:26:13.001Z,11.87
2018-11-10T02:28:40.943Z,8.70
2018-11-10T02:31:08.878Z,7.30
2018-11-10T02:33:36.583Z,8.30
2018-11-10T02:36:04.386Z,8.53
2018-11-10T02:38:32.264Z,8.80
2018-11-10T02:40:59.951Z,7.57
2018-11-10T02:43:27.681Z,7.27
2018-11-10T02:45:55.368Z,9.73
2018-11-10T02:48:23.075Z,6.37
2018-11-10T02:50:50.907Z,7.17
2018-11-10T02:53:18.575Z,8.80
2018-11-10T02:55:46.235Z,6.63
2018-11-10T02:58:13.875Z,10.90
2018-11-10T03:00:41.534Z,7.63
2018-11-10T03:03:09.165Z,8.47
2018-11-10T03:05:36.888Z,9.53
2018-11-10T03:08:04.986Z,8.60
2018-11-10T03:10:32.803Z,7.03
2018-11-10T03:13:01.248Z,6.50
2018-11-10T03:15:28.984Z,8.23
2018-11-10T03:17:56.793Z,7.33
2018-11-10T03:20:24.445Z,7.87
2018-11-10T03:22:52.093Z,6.13
2018-11-10T03:25:19.666Z,5.90
2018-11-10T03:27:47.324Z,7.70
2018-11-10T03:30:15.453Z,6.10
2018-11-10T03:32:43.314Z,6.80
2018-11-10T03:35:11.101Z,7.50
2018-11-10T03:37:39.210Z,12.00
2018-11-10T03:40:09.945Z,53.17
2018-11-10T03:42:38.209Z,34.77
2018-11-10T03:45:07.614Z,38.97
2018-11-10T03:47:35.467Z,82.53
2018-11-10T03:50:03.271Z,43.10
2018-11-10T03:52:31.295Z,23.53
2018-11-10T03:54:59.124Z,15.37
2018-11-10T03:57:27.260Z,10.40
2018-11-10T03:59:55.309Z,8.23
2018-11-10T04:02:22.997Z,16.13
2018-11-10T04:04:50.645Z,6.20
2018-11-10T04:07:18.620Z,6.30
2018-11-10T04:09:46.348Z,5.43
2018-11-10T04:12:13.991Z,5.50
2018-11-10T04:14:41.847Z,12.80
2018-11-10T04:17:09.824Z,34.60
2018-11-10T04:19:37.541Z,30.83
2018-11-10T04:22:05.448Z,55.03
2018-11-10T04:24:33.169Z,32.47
2018-11-10T04:27:00.867Z,16.00
2018-11-10T04:29:28.617Z,13.50
2018-11-10T04:31:56.596Z,9.27
2018-11-10T04:34:25.023Z,9.33
2018-11-10T04:36:52.808Z,8.17
2018-11-10T04:39:21.351Z,8.67
2018-11-10T04:41:49.040Z,7.23
2018-11-10T04:44:16.955Z,6.20
2018-11-10T04:46:44.598Z,6.70
2018-11-10T04:49:13.192Z,7.43
2018-11-10T04:51:41.023Z,8.90
2018-11-10T04:54:08.766Z,5.93
2018-11-10T04:56:36.618Z,6.30
2018-11-10T04:59:04.240Z,8.23
2018-11-10T05:01:32.000Z,10.13
2018-11-10T05:03:59.620Z,7.50
2018-11-10T05:06:27.303Z,7.30
2018-11-10T05:08:55.306Z,7.37
2018-11-10T05:11:23.036Z,7.63
2018-11-10T05:13:50.863Z,7.30
2018-11-10T05:16:18.582Z,5.73
2018-11-10T05:18:46.401Z,10.13
2018-11-10T05:21:14.054Z,11.40
2018-11-10T05:23:41.735Z,19.13
2018-11-10T05:26:09.560Z,66.40
2018-11-10T05:28:37.214Z,64.20
2018-11-10T05:31:04.844Z,56.40
2018-11-10T05:33:32.548Z,34.10
2018-11-10T05:36:00.595Z,23.60
2018-11-10T05:38:28.287Z,12.97
2018-11-10T05:40:56.008Z,10.83
2018-11-10T05:43:23.635Z,8.40
2018-11-10T05:45:51.255Z,9.90
2018-11-10T05:48:18.916Z,7.80
2018-11-10T05:50:46.586Z,7.30
2018-11-10T05:53:14.377Z,7.77
2018-11-10T05:55:42.463Z,8.50
2018-11-10T05:58:10.545Z,6.30
2018-11-10T06:00:38.135Z,9.27
2018-11-10T06:03:06.000Z,7.00
2018-11-10T06:05:33.783Z,8.97
2018-11-10T06:08:01.577Z,7.57
2018-11-10T06:10:29.773Z,8.97
2018-11-10T06:12:57.338Z,9.07
2018-11-10T06:15:25.082Z,9.27
2018-11-10T06:17:52.874Z,7.77
2018-11-10T06:20:20.628Z,8.77
2018-11-10T06:22:48.616Z,6.93
2018-11-10T06:25:17.175Z,23.90
2018-11-10T06:27:45.071Z,71.30
2018-11-10T06:30:13.062Z,47.47
2018-11-10T06:32:41.139Z,31.00
2018-11-10T06:35:09.621Z,18.20
2018-11-10T06:37:37.911Z,14.27
2018-11-10T06:40:07.882Z,10.10
2018-11-10T06:42:35.961Z,10.87
2018-11-10T06:45:04.329Z,7.50
2018-11-10T06:47:32.166Z,8.90
2018-11-10T06:50:00.331Z,7.90
2018-11-10T06:52:28.322Z,9.17
2018-11-10T06:54:56.282Z,5.63
2018-11-10T06:57:24.181Z,6.60
2018-11-10T06:59:51.912Z,7.33
2018-11-10T07:02:19.548Z,6.13
2018-11-10T07:04:47.225Z,7.77
2018-11-10T07:07:14.990Z,7.83
2018-11-10T07:09:43.003Z,7.60
2018-11-10T07:12:11.516Z,8.83
2018-11-10T07:14:39.263Z,7.90
2018-11-10T07:17:06.906Z,7.23
2018-11-10T07:19:34.687Z,11.37
2018-11-10T07:22:02.656Z,16.83
2018-11-10T07:24:30.379Z,37.87
2018-11-10T07:26:58.226Z,24.53
2018-11-10T07:29:25.932Z,16.30
2018-11-10T07:31:53.715Z,12.30
2018-11-10T07:34:21.522Z,9.93
2018-11-10T07:36:49.320Z,10.17
2018-11-10T07:39:17.017Z,10.43
2018-11-10T07:41:45.008Z,9.47
2018-11-10T07:44:12.879Z,9.10
2018-11-10T07:46:40.686Z,7.13
2018-11-10T07:49:08.759Z,8.03
2018-11-10T07:51:36.624Z,7.73
2018-11-10T07:54:04.870Z,9.33
2018-11-10T07:56:33.770Z,7.80
2018-11-10T07:59:02.104Z,8.27
2018-11-10T08:01:30.916Z,7.70
2018-11-10T08:03:58.732Z,10.13
2018-11-10T08:06:26.644Z,8.70
2018-11-10T08:08:54.756Z,12.37
2018-11-10T08:11:22.678Z,70.10
2018-11-10T08:13:50.677Z,43.60
2018-11-10T08:16:18.692Z,24.53
2018-11-10T08:18:46.317Z,15.57
2018-11-10T08:21:14.999Z,12.90
2018-11-10T08:23:42.874Z,12.47
2018-11-10T08:26:10.693Z,9.30
2018-11-10T08:28:38.389Z,9.67
2018-11-10T08:31:06.311Z,8.03
2018-11-10T08:33:34.990Z,11.33
2018-11-10T08:36:02.753Z,9.10
2018-11-10T08:38:30.466Z,6.70
2018-11-10T08:40:58.304Z,8.40
2018-11-10T08:43:25.993Z,6.83
2018-11-10T08:45:53.859Z,7.07
2018-11-10T08:48:21.690Z,9.27
2018-11-10T08:50:49.505Z,7.63
2018-11-10T08:53:17.404Z,12.83
2018-11-10T08:55:45.491Z,5.30
2018-11-10T08:58:13.464Z,7.30
2018-11-10T09:00:41.474Z,6.20
2018-11-10T09:03:09.186Z,6.50
2018-11-10T09:05:36.881Z,6.10
2018-11-10T09:08:04.618Z,7.17
2018-11-10T09:10:32.343Z,5.70
2018-11-10T09:13:00.090Z,7.17
2018-11-10T09:15:27.794Z,4.87
2018-11-10T09:17:56.737Z,6.27
2018-11-10T09:20:24.480Z,4.90
2018-11-10T09:22:52.181Z,5.57
2018-11-10T09:25:19.961Z,5.10
2018-11-10T09:27:47.611Z,4.00
2018-11-10T09:30:16.519Z,4.00
2018-11-10T09:32:44.225Z,4.77
2018-11-10T09:35:12.953Z,3.60
2018-11-10T09:37:40.856Z,4.47
2018-11-10T09:40:11.724Z,3.23
2018-11-10T09:42:39.650Z,2.87
2018-11-10T09:45:08.883Z,2.20
2018-11-10T09:47:37.072Z,2.90
2018-11-10T09:50:12.125Z,1.93
2018-11-10T09:52:40.342Z,2.23
2018-11-10T09:55:08.295Z,1.90
2018-11-10T09:57:36.677Z,1.73
2018-11-10T10:00:08.503Z,0.90
2018-11-10T10:02:37.164Z,1.43
2018-11-10T10:05:05.390Z,2.23
2018-11-10T10:07:33.119Z,1.10
2018-11-10T10:10:01.025Z,1.40
2018-11-10T10:12:28.712Z,1.30
2018-11-10T10:14:56.480Z,1.30
2018-11-10T10:17:24.325Z,1.20
2018-11-10T10:19:52.684Z,1.60
2018-11-10T10:22:20.522Z,1.47
2018-11-10T10:24:48.112Z,2.40
2018-11-10T10:27:15.828Z,1.70
2018-11-10T10:29:44.417Z,1.27
2018-11-10T10:32:12.918Z,1.97
2018-11-10T10:34:40.932Z,1.40
2018-11-10T10:37:08.607Z,1.17
2018-11-10T10:39:36.422Z,1.87
2018-11-10T10:42:07.552Z,23.50
2018-11-10T10:44:35.339Z,16.90
2018-11-10T10:47:03.486Z,10.60
2018-11-10T10:49:31.389Z,9.50
2018-11-10T10:51:58.989Z,7.93
2018-11-10T10:54:26.811Z,3.57
2018-11-10T10:56:54.752Z,3.10
2018-11-10T10:59:23.071Z,2.80
2018-11-10T11:01:56.416Z,4.50
2018-11-10T11:04:29.693Z,4.80
2018-11-10T11:06:57.489Z,5.00
2018-11-10T11:09:25.350Z,2.73
2018-11-10T11:11:53.325Z,3.73
2018-11-10T11:14:20.954Z,3.90
2018-11-10T11:16:48.867Z,1.90
2018-11-10T11:19:16.608Z,52.00
2018-11-10T11:21:44.270Z,43.40
2018-11-10T11:24:12.339Z,28.80
2018-11-10T11:26:41.324Z,18.23
2018-11-10T11:29:09.712Z,12.47
2018-11-10T11:31:37.770Z,7.20
2018-11-10T11:34:06.093Z,7.30
2018-11-10T11:36:34.863Z,54.63
2018-11-10T11:39:03.597Z,84.97
2018-11-10T11:41:31.486Z,117.90
2018-11-10T11:43:59.156Z,18.97
2018-11-10T11:46:26.840Z,12.47
2018-11-10T11:48:54.669Z,9.60
2018-11-10T11:51:22.561Z,6.63
2018-11-10T11:53:50.234Z,4.10
2018-11-10T11:56:17.995Z,2.57
2018-11-10T11:58:45.884Z,2.47
2018-11-10T12:01:13.593Z,1.83
2018-11-10T12:03:41.372Z,2.87
2018-11-10T12:06:09.128Z,1.23
2018-11-10T12:08:36.926Z,1.00
2018-11-10T12:11:04.762Z,1.60
2018-11-10T12:13:32.693Z,2.10
2018-11-10T12:16:00.409Z,2.87
2018-11-10T12:18:28.242Z,1.10
2018-11-10T12:20:55.886Z,1.30
2018-11-10T12:23:23.899Z,1.90
2018-11-10T12:25:52.512Z,1.10
2018-11-10T12:28:20.139Z,1.33
2018-11-10T12:30:47.703Z,1.43
2018-11-10T12:33:15.405Z,3.80
2018-11-10T12:35:43.943Z,1.90
2018-11-10T12:38:11.626Z,3.13
2018-11-10T12:40:39.267Z,4.03
2018-11-10T12:43:07.366Z,2.67
2018-11-10T12:45:35.958Z,1.83
2018-11-10T12:48:03.734Z,1.80
2018-11-10T12:50:31.601Z,28.80
2018-11-10T12:53:05.575Z,27.73
2018-11-10T12:55:34.097Z,18.63
2018-11-10T12:58:02.042Z,11.33
2018-11-10T13:00:29.912Z,9.57
2018-11-10T13:02:57.791Z,7.37
2018-11-10T13:05:25.628Z,5.07
2018-11-10T13:07:53.467Z,4.20
2018-11-10T13:10:21.111Z,4.97
2018-11-10T13:12:48.974Z,2.87
2018-11-10T13:15:16.674Z,3.63
2018-11-10T13:17:44.396Z,1.93
2018-11-10T13:20:13.340Z,2.30
2018-11-10T13:22:41.077Z,1.60
2018-11-10T13:25:10.497Z,2.37
2018-11-10T13:27:38.298Z,1.80
2018-11-10T13:30:08.130Z,1.77
2018-11-10T13:32:36.265Z,1.50
2018-11-10T13:35:04.854Z,2.60
2018-11-10T13:37:32.702Z,1.60
2018-11-10T13:40:00.489Z,2.50
2018-11-10T13:42:28.331Z,3.80
2018-11-10T13:44:56.251Z,2.20
2018-11-10T13:47:23.959Z,3.07
2018-11-10T13:49:51.741Z,8.40
2018-11-10T13:52:19.907Z,5.67
2018-11-10T13:54:47.471Z,3.53
2018-11-10T13:57:15.278Z,3.60
2018-11-10T13:59:43.120Z,4.70
2018-11-10T14:02:10.853Z,3.63
2018-11-10T14:04:38.807Z,6.93
2018-11-10T14:07:06.493Z,5.03
2018-11-10T14:09:34.543Z,4.00
2018-11-10T14:12:02.380Z,14.17
2018-11-10T14:14:30.374Z,45.80
2018-11-10T14:16:58.207Z,32.20
2018-11-10T14:19:26.060Z,14.73
2018-11-10T14:21:53.739Z,10.33
2018-11-10T14:24:21.498Z,7.17
2018-11-10T14:26:49.147Z,7.00
2018-11-10T14:29:17.045Z,7.60
2018-11-10T14:31:44.883Z,5.47
2018-11-10T14:34:12.742Z,5.37
2018-11-10T14:36:40.504Z,6.43
2018-11-10T14:39:09.562Z,4.67
2018-11-10T14:41:37.726Z,3.97
2018-11-10T14:44:05.854Z,6.07
2018-11-10T14:46:33.861Z,3.73
2018-11-10T14:49:01.682Z,5.20
2018-11-10T14:51:29.315Z,6.07
2018-11-10T14:53:57.407Z,6.67
2018-11-10T14:56:25.182Z,5.27
2018-11-10T14:58:52.899Z,4.93
2018-11-10T15:01:20.792Z,4.20
2018-11-10T15:03:48.519Z,4.13
2018-11-10T15:06:16.309Z,2.80
2018-11-10T15:08:44.081Z,3.30
2018-11-10T15:11:11.941Z,3.00
2018-11-10T15:13:40.213Z,2.50
2018-11-10T15:16:08.506Z,3.10
2018-11-10T15:18:36.163Z,4.13
2018-11-10T15:21:04.197Z,2.80
2018-11-10T15:23:32.090Z,4.00
2018-11-10T15:25:59.830Z,2.47
2018-11-10T15:28:27.527Z,28.20
2018-11-10T15:30:55.407Z,43.67
2018-11-10T15:33:23.102Z,29.60
2018-11-10T15:35:50.840Z,19.43
2018-11-10T15:38:18.528Z,21.63
2018-11-10T15:40:46.254Z,10.43
2018-11-10T15:43:13.935Z,6.73
2018-11-10T15:45:44.308Z,10.70
2018-11-10T15:48:12.074Z,7.67
2018-11-10T15:50:40.007Z,3.70
2018-11-10T15:53:07.763Z,2.73
2018-11-10T15:55:35.591Z,4.43
2018-11-10T15:58:03.750Z,2.53
2018-11-10T16:00:31.679Z,2.63
2018-11-10T16:02:59.426Z,1.93
2018-11-10T16:05:27.215Z,1.30
2018-11-10T16:07:54.974Z,1.70
2018-11-10T16:10:22.768Z,2.47
2018-11-10T16:12:50.677Z,1.27
2018-11-10T16:15:18.437Z,2.13
2018-11-10T16:17:46.214Z,0.90
2018-11-10T16:20:15.985Z,1.53
2018-11-10T16:22:45.674Z,2.93
2018-11-10T16:25:13.563Z,1.43
2018-11-10T16:27:41.193Z,7.57
2018-11-10T16:30:11.447Z,2.20
2018-11-10T16:32:39.301Z,2.73
2018-11-10T16:35:07.412Z,5.20
2018-11-10T16:37:34.966Z,1.93
2018-11-10T16:40:02.995Z,17.70
2018-11-10T16:42:30.629Z,29.27
2018-11-10T16:44:58.553Z,21.27
2018-11-10T16:47:26.154Z,39.50
2018-11-10T16:49:53.908Z,26.30
2018-11-10T16:52:21.693Z,18.70
2018-11-10T16:54:49.554Z,10.97
2018-11-10T16:57:17.516Z,13.73
2018-11-10T16:59:45.619Z,7.53
2018-11-10T17:02:13.410Z,5.50
2018-11-10T17:04:41.009Z,4.23
2018-11-10T17:07:08.806Z,2.77
2018-11-10T17:09:36.386Z,2.47
2018-11-10T17:12:04.807Z,2.27
2018-11-10T17:14:32.276Z,2.60
2018-11-10T17:17:00.062Z,2.37
2018-11-10T17:19:27.714Z,2.50
2018-11-10T17:21:55.662Z,3.13
2018-11-10T17:24:23.240Z,1.77
2018-11-10T17:26:51.685Z,3.07
2018-11-10T17:29:19.201Z,1.60
2018-11-10T17:31:47.028Z,3.13
2018-11-10T17:34:14.607Z,9.63
2018-11-10T17:36:42.515Z,24.17
2018-11-10T17:39:10.494Z,26.43
2018-11-10T17:41:38.019Z,20.33
2018-11-10T17:44:06.189Z,12.43
2018-11-10T17:46:33.902Z,9.43
2018-11-10T17:49:01.661Z,6.23
2018-11-10T17:51:29.365Z,7.00
2018-11-10T17:53:57.400Z,4.60
2018-11-10T17:56:25.109Z,3.67
2018-11-10T17:58:52.887Z,5.70
2018-11-10T18:01:20.720Z,3.37
2018-11-10T18:03:48.723Z,4.10
2018-11-10T18:06:16.427Z,3.57
2018-11-10T18:08:44.056Z,2.73
2018-11-10T18:11:11.797Z,3.60
2018-11-10T18:13:39.542Z,1.63
2018-11-10T18:16:07.367Z,2.03
2018-11-10T18:18:34.912Z,1.87
2018-11-10T18:21:02.515Z,2.87
2018-11-10T18:23:30.562Z,2.40
2018-11-10T18:25:58.184Z,1.77
2018-11-10T18:28:25.718Z,3.67
2018-11-10T18:30:53.397Z,1.60
2018-11-10T18:33:21.170Z,3.37
2018-11-10T18:35:48.799Z,2.30
2018-11-10T18:38:16.494Z,2.43
2018-11-10T18:40:44.084Z,2.60
2018-11-10T18:43:12.095Z,1.70
2018-11-10T18:45:40.014Z,2.00
2018-11-10T18:48:07.780Z,46.60
2018-11-10T18:50:35.421Z,31.07
2018-11-10T18:53:03.403Z,18.07
2018-11-10T18:55:30.965Z,11.10
2018-11-10T18:57:58.618Z,9.50
2018-11-10T19:00:26.451Z,6.27
2018-11-10T19:02:54.089Z,6.70
2018-11-10T19:05:21.759Z,3.10
2018-11-10T19:07:49.387Z,2.07
2018-11-10T19:10:17.885Z,2.07
2018-11-10T19:12:45.580Z,2.80
2018-11-10T19:15:15.824Z,2.10
2018-11-10T19:17:43.934Z,3.80
2018-11-10T19:20:12.809Z,1.20
2018-11-10T19:22:40.774Z,1.70
2018-11-10T19:25:09.825Z,1.47
2018-11-10T19:27:37.805Z,1.70
2018-11-10T19:30:08.210Z,3.60
2018-11-10T19:32:35.792Z,1.67
2018-11-10T19:35:03.982Z,1.87
2018-11-10T19:37:31.617Z,1.87
2018-11-10T19:39:59.344Z,3.97
2018-11-10T19:42:34.616Z,2.60
2018-11-10T19:45:02.658Z,2.83
2018-11-10T19:47:30.364Z,2.00
2018-11-10T19:49:58.391Z,2.93
2018-11-10T19:52:26.470Z,3.43
2018-11-10T19:54:54.216Z,3.60
2018-11-10T19:57:22.318Z,2.67
2018-11-10T19:59:49.930Z,3.00
2018-11-10T20:02:18.157Z,2.67
2018-11-10T20:04:46.238Z,3.53
2018-11-10T20:07:14.325Z,2.60
2018-11-10T20:09:42.540Z,2.37
2018-11-10T20:12:10.673Z,3.37
2018-11-10T20:14:38.791Z,14.30
2018-11-10T20:17:06.810Z,13.43
2018-11-10T20:19:34.826Z,8.23
2018-11-10T20:22:02.544Z,5.80
2018-11-10T20:24:30.441Z,3.80
2018-11-10T20:26:58.132Z,3.90
2018-11-10T20:29:25.842Z,2.53
2018-11-10T20:31:54.037Z,2.40
2018-11-10T20:34:22.155Z,2.20
2018-11-10T20:36:49.986Z,2.47
2018-11-10T20:39:17.970Z,1.90
2018-11-10T20:41:45.648Z,2.30
2018-11-10T20:44:13.510Z,1.20
2018-11-10T20:46:41.269Z,1.63
2018-11-10T20:49:10.259Z,3.73
2018-11-10T20:51:37.991Z,1.40
2018-11-10T20:54:06.109Z,3.90
2018-11-10T20:56:33.856Z,4.23
2018-11-10T20:59:02.150Z,1.80
2018-11-10T21:01:29.810Z,3.33
2018-11-10T21:03:58.108Z,1.90
2018-11-10T21:06:26.580Z,2.30
2018-11-10T21:08:54.392Z,2.53
2018-11-10T21:11:22.091Z,1.70
2018-11-10T21:13:50.181Z,3.43
2018-11-10T21:16:17.749Z,2.87
2018-11-10T21:18:45.751Z,2.23
2018-11-10T21:21:13.383Z,1.93
2018-11-10T21:23:41.241Z,2.70
2018-11-10T21:26:08.855Z,1.90
2018-11-10T21:28:36.809Z,2.87
2018-11-10T21:31:04.884Z,6.70
2018-11-10T21:33:32.950Z,2.40
2018-11-10T21:36:00.559Z,2.63
2018-11-10T21:38:28.283Z,3.00
2018-11-10T21:40:55.928Z,3.33
2018-11-10T21:43:23.812Z,3.50
2018-11-10T21:45:51.437Z,3.73
2018-11-10T21:48:19.417Z,2.80
2018-11-10T21:50:47.347Z,2.40
2018-11-10T21:53:15.282Z,5.60
2018-11-10T21:55:42.963Z,2.57
2018-11-10T21:58:11.096Z,2.30
2018-11-10T22:00:38.748Z,3.20
2018-11-10T22:03:06.900Z,2.30
2018-11-10T22:05:34.798Z,2.13
2018-11-10T22:08:02.597Z,2.03
2018-11-10T22:10:30.172Z,2.30
2018-11-10T22:12:58.191Z,1.83
2018-11-10T22:15:26.016Z,1.90
2018-11-10T22:17:53.892Z,1.67
2018-11-10T22:20:22.880Z,3.20
2018-11-10T22:22:50.961Z,1.50
2018-11-10T22:25:19.062Z,2.17
2018-11-10T22:27:49.353Z,1.70
2018-11-10T22:30:18.361Z,1.37
2018-11-10T22:32:46.613Z,5.60
2018-11-10T22:35:14.245Z,2.50
2018-11-10T22:37:42.048Z,1.53
2018-11-10T22:40:12.680Z,2.60
2018-11-10T22:42:40.889Z,1.50
2018-11-10T22:45:10.794Z,1.60
2018-11-10T22:47:39.239Z,1.10
2018-11-10T22:50:08.711Z,1.53
2018-11-10T22:52:36.471Z,1.30
2018-11-10T22:55:04.587Z,1.83
2018-11-10T22:57:32.747Z,2.10
2018-11-10T23:00:00.497Z,1.63
2018-11-10T23:02:28.197Z,1.47
2018-11-10T23:04:55.849Z,1.70
2018-11-10T23:07:23.582Z,1.53
2018-11-10T23:09:51.547Z,2.00
2018-11-10T23:12:19.124Z,1.60
2018-11-10T23:14:46.764Z,2.07
2018-11-10T23:17:14.400Z,2.00
2018-11-10T23:19:42.029Z,1.40
2018-11-10T23:22:09.873Z,1.60
2018-11-10T23:24:37.530Z,4.03
2018-11-10T23:27:05.422Z,2.30
2018-11-10T23:29:33.109Z,2.03
2018-11-10T23:32:00.738Z,2.43
2018-11-10T23:34:28.304Z,1.53
2018-11-10T23:36:55.990Z,2.20
2018-11-10T23:39:23.552Z,2.03
2018-11-10T23:41:51.140Z,3.00
2018-11-10T23:44:18.746Z,1.53
2018-11-10T23:46:46.487Z,1.73
2018-11-10T23:49:14.466Z,3.03
2018-11-10T23:51:42.101Z,2.30
2018-11-10T23:54:09.877Z,1.37
2018-11-10T23:56:37.419Z,1.73
2018-11-10T23:59:05.601Z,2.50
